Time;durP1;ratioP1;P1;durP2;ratioP2;P2;SDS_P1;SDS_P2;PMS_P1;PMS_P2;Temp;Humidity;BMP_temperature;BMP_pressure;BME280_temperature;BME280_humidity;BME280_pressure;Samples;Min_cycle;Max_cycle;Signal;HPM_P1;HPM_P2
2023/06/18 00:02:24;;;;;;;11.60;7.18;;;;;;;-146.27;66.54;80620.84;5027718;28;20067;-68
2023/06/18 00:04:50;;;;;;;13.18;7.43;;;;;;;-146.27;66.72;80616.84;5032782;28;20021;-68
2023/06/18 00:07:15;;;;;;;10.75;7.97;;;;;;;-146.27;66.56;80620.84;5028031;28;20463;-69
2023/06/18 00:09:40;;;;;;;11.70;7.38;;;;;;;-146.27;66.18;80588.72;5029985;28;20497;-68
2023/06/18 00:12:06;;;;;;;11.25;7.88;;;;;;;-146.27;66.35;80669.03;5031380;28;20033;-68
2023/06/18 00:14:31;;;;;;;13.02;7.55;;;;;;;-146.27;67.17;80646.94;5024572;28;20418;-68
2023/06/18 00:16:57;;;;;;;9.02;7.35;;;;;;;-146.27;67.77;80628.88;5022640;28;20500;-67
2023/06/18 00:19:22;;;;;;;9.55;7.32;;;;;;;-146.27;67.84;80693.13;5023844;28;20030;-67
2023/06/18 00:21:47;;;;;;;12.82;7.40;;;;;;;-146.27;68.08;80731.28;5023066;28;20026;-67
2023/06/18 00:24:13;;;;;;;9.40;7.57;;;;;;;-146.27;67.68;80719.22;5027558;28;20056;-67
2023/06/18 00:26:38;;;;;;;12.00;8.02;;;;;;;-146.27;67.82;80713.22;5031064;28;20063;-67
2023/06/18 00:29:04;;;;;;;13.20;8.27;;;;;;;-146.27;67.71;80689.13;5032676;28;20128;-67
2023/06/18 00:31:32;;;;;;;13.18;7.43;;;;;;;-146.27;67.78;80701.16;5029009;28;20112;-67
2023/06/18 00:34:04;;;;;;;10.45;8.43;;;;;;;-146.27;68.02;80733.28;5031973;28;20028;-67
2023/06/18 00:36:31;;;;;;;9.10;7.35;;;;;;;-146.27;67.86;80737.31;5030759;28;20468;-67
2023/06/18 00:38:57;;;;;;;10.32;7.75;;;;;;;-146.27;66.72;80731.28;5031910;28;20054;-67
2023/06/18 00:41:27;;;;;;;12.77;8.70;;;;;;;-146.27;66.97;80753.38;5031073;28;20072;-67
2023/06/18 00:43:53;;;;;;;12.32;7.63;;;;;;;-146.27;66.97;80765.41;5032575;28;20444;-68
2023/06/18 00:46:20;;;;;;;10.00;8.05;;;;;;;-146.27;67.11;80775.47;5023542;28;20421;-67
2023/06/18 00:48:45;;;;;;;10.20;7.53;;;;;;;-146.27;67.61;80765.41;5031213;28;20029;-67
2023/06/18 00:51:12;;;;;;;9.57;7.95;;;;;;;-146.27;67.63;80751.38;5030875;28;20035;-67
2023/06/18 00:53:38;;;;;;;9.60;7.75;;;;;;;-146.27;68.44;80807.59;5030956;28;20013;-66
2023/06/18 00:56:04;;;;;;;10.40;8.00;;;;;;;-146.27;67.69;80783.50;5027816;28;20091;-69
2023/06/18 00:58:31;;;;;;;11.02;8.18;;;;;;;-146.27;67.60;80765.41;5029364;28;20029;-68
2023/06/18 01:00:57;;;;;;;10.52;7.85;;;;;;;-146.27;66.86;80821.63;5028258;28;20112;-68
2023/06/18 01:03:25;;;;;;;10.27;7.47;;;;;;;-146.27;66.95;80767.44;5029274;28;20083;-68
2023/06/18 01:05:57;;;;;;;12.43;7.93;;;;;;;-146.27;67.20;80757.38;5028698;28;20416;-69
2023/06/18 01:08:24;;;;;;;17.67;9.02;;;;;;;-146.27;66.64;80793.53;5032218;28;20036;-69
2023/06/18 01:11:01;;;;;;;11.50;8.15;;;;;;;-146.27;67.81;80797.53;5026069;28;20045;-68
2023/06/18 01:13:30;;;;;;;13.02;7.57;;;;;;;-146.27;66.86;80773.44;5030246;28;20060;-69
2023/06/18 01:16:03;;;;;;;12.93;7.45;;;;;;;-146.27;66.49;80801.56;5030384;28;20418;-68
2023/06/18 01:18:36;;;;;;;10.73;7.50;;;;;;;-146.27;65.76;80809.59;5032698;28;20021;-68
2023/06/18 01:21:06;;;;;;;9.07;7.77;;;;;;;-146.27;66.01;80869.84;5030671;28;20025;-69
2023/06/18 01:23:49;;;;;;;16.25;7.50;;;;;;;-146.27;66.59;80809.59;5032106;28;20029;-68
2023/06/18 01:26:15;;;;;;;12.18;8.20;;;;;;;-146.27;66.30;80841.72;5025495;28;20394;-68
2023/06/18 01:28:41;;;;;;;9.70;6.60;;;;;;;-146.27;66.81;80881.88;5032018;28;20029;-68
2023/06/18 01:31:06;;;;;;;14.00;7.05;;;;;;;-146.27;67.50;80897.94;5020041;28;20556;-68
2023/06/18 01:33:33;;;;;;;11.20;7.28;;;;;;;-146.27;67.86;80926.06;5017684;28;20132;-68
2023/06/18 01:36:00;;;;;;;11.23;7.20;;;;;;;-146.27;68.11;80946.13;5032202;28;20029;-68
2023/06/18 01:38:59;;;;;;;10.02;7.22;;;;;;;-146.27;68.61;80922.03;5023789;28;20030;-68
2023/06/18 01:41:31;;;;;;;12.68;8.35;;;;;;;-146.27;68.34;80970.25;5021316;28;20038;-68
2023/06/18 01:44:02;;;;;;;12.10;8.05;;;;;;;-146.27;67.75;81000.34;5030876;28;20028;-68
2023/06/18 01:46:29;;;;;;;11.52;7.78;;;;;;;-146.27;67.61;80958.19;5030002;28;20095;-68
2023/06/18 01:48:57;;;;;;;16.52;7.55;;;;;;;-146.27;66.81;81006.38;5032907;28;20033;-69
2023/06/18 01:51:25;;;;;;;11.57;7.25;;;;;;;-146.27;67.65;80962.22;5017461;28;20025;-69
2023/06/18 01:53:54;;;;;;;10.27;7.88;;;;;;;-146.27;66.48;80954.19;5032161;28;20060;-68
2023/06/18 01:56:22;;;;;;;10.68;8.15;;;;;;;-146.27;66.31;81000.34;5030828;28;20028;-68
2023/06/18 01:58:47;;;;;;;10.38;7.25;;;;;;;-146.27;67.65;81012.41;5025936;28;20033;-68
2023/06/18 02:01:13;;;;;;;14.55;7.40;;;;;;;-146.27;65.36;80990.31;5018057;28;20382;-68
2023/06/18 02:03:40;;;;;;;11.15;7.00;;;;;;;-146.27;64.68;80996.34;5029087;28;20033;-68
2023/06/18 02:06:06;;;;;;;9.38;7.20;;;;;;;-146.27;64.54;81030.47;5030125;28;20076;-68
2023/06/18 02:08:31;;;;;;;8.85;7.38;;;;;;;-146.27;64.30;81078.69;5032296;28;20036;-68
2023/06/18 02:10:57;;;;;;;13.27;7.68;;;;;;;-146.27;64.76;81050.56;5030014;28;20494;-68
2023/06/18 02:13:26;;;;;;;8.90;7.25;;;;;;;-146.27;65.37;81042.53;5031242;28;20100;-68
2023/06/18 02:15:52;;;;;;;10.55;7.18;;;;;;;-146.27;64.14;81046.53;5030800;28;20428;-68
2023/06/18 02:18:17;;;;;;;8.95;6.97;;;;;;;-146.27;63.07;81036.50;5030693;28;20025;-68
2023/06/18 02:20:44;;;;;;;9.27;7.00;;;;;;;-146.27;63.64;81056.59;5031124;28;20049;-68
2023/06/18 02:23:09;;;;;;;14.32;7.25;;;;;;;-146.27;62.76;81092.72;5030974;28;20448;-68
2023/06/18 02:25:35;;;;;;;9.30;7.10;;;;;;;-146.27;63.37;81078.69;5031904;28;20029;-68
2023/06/18 02:28:05;;;;;;;9.25;6.65;;;;;;;-146.27;63.16;81034.50;5028760;28;20014;-69
2023/06/18 02:30:31;;;;;;;10.15;6.93;;;;;;;-146.27;61.34;81034.50;5020527;28;20030;-68
2023/06/18 02:33:01;;;;;;;9.80;6.63;;;;;;;-146.27;61.02;81022.44;5026307;28;20068;-68
2023/06/18 02:35:27;;;;;;;11.90;7.18;;;;;;;-146.27;60.66;81014.41;5030405;28;20028;-69
2023/06/18 02:37:53;;;;;;;14.00;7.18;;;;;;;-146.27;60.78;81030.47;5022770;28;20036;-69
2023/06/18 02:40:19;;;;;;;14.30;7.20;;;;;;;-146.27;61.72;81038.50;5030681;28;20088;-68
2023/06/18 02:42:47;;;;;;;10.98;7.07;;;;;;;-146.27;62.29;81070.66;5029200;28;20041;-69
2023/06/18 02:45:21;;;;;;;10.85;6.25;;;;;;;-146.27;63.31;81072.66;5029003;28;20034;-68
2023/06/18 02:47:48;;;;;;;9.40;6.57;;;;;;;-146.27;62.81;81066.63;5014418;28;20022;-68
2023/06/18 02:50:14;;;;;;;9.82;6.82;;;;;;;-146.27;62.36;81094.75;5023306;28;20084;-68
2023/06/18 02:52:40;;;;;;;8.20;6.78;;;;;;;-146.27;62.73;81094.75;5030604;28;20071;-69
2023/06/18 02:55:07;;;;;;;8.88;6.65;;;;;;;-146.27;63.48;81118.84;5014646;28;20050;-68
2023/06/18 02:57:36;;;;;;;9.98;6.82;;;;;;;-146.27;63.26;81126.88;5028722;28;20120;-68
2023/06/18 03:00:11;;;;;;;13.05;7.13;;;;;;;-146.27;64.01;81078.69;5031682;28;20124;-68
2023/06/18 03:02:37;;;;;;;16.88;7.22;;;;;;;-146.27;63.90;81090.72;5030242;28;20029;-69
2023/06/18 03:05:03;;;;;;;9.65;7.00;;;;;;;-146.27;64.60;81157.00;5028978;28;20079;-68
2023/06/18 03:07:28;;;;;;;11.20;7.45;;;;;;;-146.27;64.51;81134.91;5031177;28;20029;-68
2023/06/18 03:09:54;;;;;;;11.27;7.28;;;;;;;-146.27;65.93;81163.03;5030476;28;20037;-68
2023/06/18 03:12:20;;;;;;;13.07;7.38;;;;;;;-146.27;65.15;81191.13;5031049;28;20047;-68
2023/06/18 03:14:46;;;;;;;10.70;7.18;;;;;;;-146.27;65.91;81179.09;5031025;28;20521;-68
2023/06/18 03:17:11;;;;;;;13.23;7.63;;;;;;;-146.27;66.17;81203.19;5031402;28;20064;-68
2023/06/18 03:19:37;;;;;;;13.13;7.40;;;;;;;-146.27;66.81;81243.34;5030740;28;20425;-68
2023/06/18 03:22:03;;;;;;;12.07;6.90;;;;;;;-146.27;67.00;81211.22;5031287;28;20048;-68
2023/06/18 03:24:29;;;;;;;12.73;7.32;;;;;;;-146.27;67.10;81241.34;5031645;28;20033;-69
2023/06/18 03:26:57;;;;;;;11.95;7.38;;;;;;;-146.27;67.30;81289.53;5030889;28;20074;-68
2023/06/18 03:29:25;;;;;;;12.52;7.57;;;;;;;-146.27;67.43;81283.50;5029040;28;20576;-68
2023/06/18 03:31:51;;;;;;;13.75;7.80;;;;;;;-146.27;67.92;81267.44;5031131;28;20108;-68
2023/06/18 03:34:20;;;;;;;10.25;7.47;;;;;;;-146.27;68.19;81297.56;5030763;28;20513;-68
2023/06/18 03:36:46;;;;;;;12.02;6.80;;;;;;;-146.27;68.76;81319.66;5030073;28;20071;-68
2023/06/18 03:39:12;;;;;;;11.90;7.45;;;;;;;-146.27;69.81;81359.81;5026186;28;20033;-68
2023/06/18 03:41:38;;;;;;;10.40;7.63;;;;;;;-146.27;70.04;81331.72;5019056;28;20041;-68
2023/06/18 03:44:03;;;;;;;9.23;7.22;;;;;;;-146.27;70.50;81371.88;5012763;28;20034;-69
2023/06/18 03:46:30;;;;;;;9.10;7.30;;;;;;;-146.27;70.81;81400.00;5023030;28;20021;-69
2023/06/18 03:48:55;;;;;;;11.90;7.35;;;;;;;-146.27;71.22;81474.31;5012217;28;20040;-68
2023/06/18 03:51:22;;;;;;;9.10;7.30;;;;;;;-146.27;71.22;81375.91;5022355;28;20026;-68
2023/06/18 03:53:48;;;;;;;11.88;7.47;;;;;;;-146.27;71.91;81375.91;5012924;28;20109;-68
2023/06/18 03:56:13;;;;;;;8.93;7.05;;;;;;;-146.27;71.42;81363.84;5020934;28;20076;-68
2023/06/18 03:58:39;;;;;;;12.85;7.85;;;;;;;-146.27;72.82;81361.84;5030474;28;20518;-68
2023/06/18 04:01:05;;;;;;;17.38;8.18;;;;;;;-146.27;71.65;81341.75;5028949;28;20055;-68
2023/06/18 04:03:31;;;;;;;14.60;7.93;;;;;;;-146.27;71.51;81369.88;5029059;28;20030;-68
2023/06/18 04:05:57;;;;;;;11.65;8.50;;;;;;;-146.27;71.50;81281.50;5024889;28;20037;-68
2023/06/18 04:08:22;;;;;;;12.13;7.90;;;;;;;-146.27;71.67;81299.59;5028070;28;20611;-68
2023/06/18 04:10:48;;;;;;;17.23;8.18;;;;;;;-146.27;71.55;81263.44;5029972;28;20482;-68
2023/06/18 04:13:15;;;;;;;14.88;8.52;;;;;;;-146.27;71.42;81263.44;5029563;28;20101;-67
2023/06/18 04:15:41;;;;;;;16.00;9.18;;;;;;;-146.27;70.56;81253.38;5030676;28;20033;-67
2023/06/18 04:18:07;;;;;;;12.30;8.70;;;;;;;-146.27;71.39;81185.13;5030457;28;20029;-68
2023/06/18 04:20:32;;;;;;;10.13;7.88;;;;;;;-146.27;70.34;81163.03;5029584;28;20401;-68
2023/06/18 04:22:58;;;;;;;14.93;9.07;;;;;;;-146.27;70.12;81159.00;5030490;28;20123;-68
2023/06/18 04:25:23;;;;;;;17.08;9.90;;;;;;;-146.27;70.06;81142.94;5021073;28;20046;-68
2023/06/18 04:27:48;;;;;;;14.68;8.13;;;;;;;-146.27;69.82;81108.81;5026131;28;20078;-69
2023/06/18 04:30:14;;;;;;;16.05;8.65;;;;;;;-146.27;70.18;81144.94;5023967;28;20029;-69
2023/06/18 04:32:39;;;;;;;14.20;8.60;;;;;;;-146.27;70.22;81120.84;5019486;28;20064;-68
2023/06/18 04:35:05;;;;;;;11.23;8.40;;;;;;;-146.27;70.84;81092.72;5029584;28;20029;-68
2023/06/18 04:37:31;;;;;;;15.90;8.50;;;;;;;-146.27;70.15;81106.78;5030285;28;20017;-68
2023/06/18 04:39:56;;;;;;;12.75;7.60;;;;;;;-146.27;70.78;81050.56;5030585;28;20028;-68
2023/06/18 04:42:21;;;;;;;14.82;9.00;;;;;;;-146.27;nan;81074.66;5024669;28;20085;-68
2023/06/18 04:44:47;;;;;;;12.88;8.57;;;;;;;-146.27;70.39;81074.66;5033175;28;20144;-68
2023/06/18 04:47:12;;;;;;;13.30;8.50;;;;;;;-146.27;70.94;81042.53;5031190;28;20645;-68
2023/06/18 04:49:38;;;;;;;16.15;8.40;;;;;;;-146.27;70.12;81036.50;5033071;28;20528;-68
2023/06/18 04:52:03;;;;;;;11.63;8.02;;;;;;;-146.27;70.72;81046.53;5032528;28;20050;-68
2023/06/18 04:54:29;;;;;;;15.30;8.38;;;;;;;-146.27;70.29;81014.41;5033318;28;20055;-67
2023/06/18 04:56:57;;;;;;;12.63;8.55;;;;;;;-146.27;68.79;81006.38;5032676;28;20393;-68
2023/06/18 04:59:22;;;;;;;14.77;8.55;;;;;;;-146.27;69.03;80990.31;5033060;28;20140;-68
2023/06/18 05:01:49;;;;;;;11.75;8.07;;;;;;;-146.27;69.30;80950.16;5029817;28;20032;-68
2023/06/18 05:04:14;;;;;;;12.75;9.20;;;;;;;-146.27;68.84;80901.97;5031712;28;20106;-69
2023/06/18 05:06:39;;;;;;;18.95;9.13;;;;;;;-146.27;67.84;80897.94;5033628;28;20033;-68
2023/06/18 05:09:05;;;;;;;17.48;9.45;;;;;;;-146.27;68.46;80928.06;5031415;28;20104;-68
2023/06/18 05:11:30;;;;;;;15.90;9.27;;;;;;;-146.27;67.83;80845.75;5032670;28;20545;-69
2023/06/18 05:13:55;;;;;;;14.15;8.95;;;;;;;-146.27;68.30;80829.69;5033097;28;20421;-68
2023/06/18 05:16:21;;;;;;;19.13;9.18;;;;;;;-146.27;68.26;80833.69;5032352;28;20385;-70
2023/06/18 05:18:46;;;;;;;17.15;9.23;;;;;;;-146.27;67.08;80857.78;5032600;28;20035;-68
2023/06/18 05:21:11;;;;;;;15.07;9.57;;;;;;;-146.27;66.96;80821.63;5031044;28;20041;-68
2023/06/18 05:23:37;;;;;;;14.40;9.82;;;;;;;-146.27;67.05;80809.59;5031018;28;20071;-68
2023/06/18 05:26:02;;;;;;;21.75;9.85;;;;;;;-146.27;67.83;80805.56;5030009;28;20068;-68
2023/06/18 05:28:28;;;;;;;14.35;8.88;;;;;;;-146.27;66.57;80759.41;5029302;28;20065;-68
2023/06/18 05:30:53;;;;;;;20.00;9.40;;;;;;;-146.27;66.19;80749.34;5028107;28;20021;-68
2023/06/18 05:33:19;;;;;;;17.75;9.52;;;;;;;-146.27;66.23;80697.16;5022803;28;20512;-70
2023/06/18 05:35:45;;;;;;;14.20;9.02;;;;;;;-146.27;65.45;80713.22;5022869;28;20033;-70
2023/06/18 05:38:11;;;;;;;16.40;10.00;;;;;;;-146.27;64.48;80717.22;5029099;28;20461;-71
2023/06/18 05:40:36;;;;;;;19.75;10.10;;;;;;;-146.27;63.70;80673.06;5028687;28;20037;-70
2023/06/18 05:43:01;;;;;;;14.95;9.40;;;;;;;-146.27;63.98;80663.00;5028938;28;20030;-70
2023/06/18 05:45:27;;;;;;;12.95;9.23;;;;;;;-146.27;64.58;80640.94;5030203;28;20030;-70
2023/06/18 05:47:52;;;;;;;17.88;9.93;;;;;;;-146.27;63.66;80638.91;5030435;28;20032;-70
2023/06/18 05:50:18;;;;;;;16.38;10.75;;;;;;;-146.27;62.76;80610.81;5026544;28;20465;-70
2023/06/18 05:52:43;;;;;;;14.20;9.13;;;;;;;-146.27;62.66;80620.84;5028391;28;20640;-70
2023/06/18 05:55:09;;;;;;;13.35;8.90;;;;;;;-146.27;62.01;80632.91;5032349;28;20048;-70
2023/06/18 05:57:35;;;;;;;13.63;10.35;;;;;;;-146.27;61.94;80650.97;5023265;28;20121;-70
2023/06/18 06:00:00;;;;;;;15.50;10.20;;;;;;;-146.27;63.32;80731.28;5022528;28;20028;-70
2023/06/18 06:02:26;;;;;;;19.27;10.85;;;;;;;-146.27;63.68;80749.34;5026047;28;20030;-71
2023/06/18 06:04:51;;;;;;;15.10;10.18;;;;;;;-146.27;64.04;80765.41;5030790;28;20206;-71
2023/06/18 06:07:16;;;;;;;15.30;10.68;;;;;;;-146.27;63.63;80757.38;5030595;28;20065;-70
2023/06/18 06:09:42;;;;;;;21.58;10.52;;;;;;;-146.27;64.07;80765.41;5032155;28;20709;-69
2023/06/18 06:12:08;;;;;;;16.05;11.48;;;;;;;-146.27;64.22;80769.44;5028419;28;20036;-70
2023/06/18 06:14:33;;;;;;;13.27;10.82;;;;;;;-146.27;64.65;80783.50;5029575;28;20116;-70
2023/06/18 06:16:59;;;;;;;17.55;10.63;;;;;;;-146.27;62.96;80759.41;5032024;28;20164;-70
2023/06/18 06:19:25;;;;;;;15.05;10.02;;;;;;;-146.27;63.41;80705.19;5030362;28;20029;-70
2023/06/18 06:21:50;;;;;;;16.05;9.90;;;;;;;-146.27;62.13;80665.03;5031431;28;20025;-70
2023/06/18 06:24:16;;;;;;;15.57;9.80;;;;;;;-146.27;61.49;80652.97;5029632;28;20031;-70
2023/06/18 06:26:41;;;;;;;14.98;10.13;;;;;;;-146.27;60.30;80638.91;5027546;28;20103;-70
2023/06/18 06:29:07;;;;;;;13.93;8.85;;;;;;;-146.27;59.34;80644.94;5029033;28;20054;-70
2023/06/18 06:31:33;;;;;;;13.20;9.27;;;;;;;-146.27;57.63;80576.66;5028309;28;20065;-71
2023/06/18 06:33:59;;;;;;;11.52;8.32;;;;;;;-146.27;56.53;80544.53;5031553;28;20025;-70
2023/06/18 06:36:25;;;;;;;11.18;8.75;;;;;;;-146.27;55.70;80536.50;5031186;28;20029;-71
2023/06/18 06:38:51;;;;;;;12.75;7.95;;;;;;;-146.27;55.74;80508.41;5030037;28;20454;-70
2023/06/18 06:41:16;;;;;;;12.63;7.95;;;;;;;-146.27;55.37;80496.34;5031136;28;20025;-70
2023/06/18 06:43:42;;;;;;;19.77;9.70;;;;;;;-146.27;55.67;80468.25;5031309;28;20087;-70
2023/06/18 06:46:08;;;;;;;14.52;9.80;;;;;;;-146.27;56.37;80500.38;5029130;28;20029;-71
2023/06/18 06:48:34;;;;;;;13.68;9.45;;;;;;;-146.27;56.32;80460.22;5031277;28;20521;-70
2023/06/18 06:50:59;;;;;;;16.20;9.40;;;;;;;-146.27;56.40;80460.22;5029986;28;20125;-71
2023/06/18 06:53:25;;;;;;;16.73;10.02;;;;;;;-146.27;57.60;80454.19;5026710;28;20071;-72
2023/06/18 06:55:50;;;;;;;14.98;8.73;;;;;;;-146.27;57.76;80468.25;5030660;28;20025;-72
2023/06/18 06:58:15;;;;;;;16.13;10.10;;;;;;;-146.27;57.36;80454.19;5030294;28;20017;-71
2023/06/18 07:00:41;;;;;;;13.98;8.55;;;;;;;-146.27;57.16;80436.13;5031179;28;20026;-70
2023/06/18 07:03:06;;;;;;;16.05;9.40;;;;;;;-146.27;56.21;80416.03;5025814;28;20056;-71
2023/06/18 07:05:31;;;;;;;18.00;10.35;;;;;;;-146.27;56.23;80375.88;5021726;28;20029;-71
2023/06/18 07:07:57;;;;;;;13.60;9.82;;;;;;;-146.27;56.32;80379.91;5023129;28;20509;-71
2023/06/18 07:10:22;;;;;;;18.80;9.05;;;;;;;-146.27;56.85;80361.84;5030356;28;20049;-71
2023/06/18 07:12:47;;;;;;;16.33;9.77;;;;;;;-146.27;55.39;80313.66;5029716;28;20037;-73
2023/06/18 07:15:13;;;;;;;12.90;9.20;;;;;;;-146.27;55.89;80343.75;5017473;28;20485;-70
2023/06/18 07:17:38;;;;;;;13.82;9.40;;;;;;;-146.27;54.69;80321.69;5029779;28;20061;-70
2023/06/18 07:20:04;;;;;;;13.02;8.35;;;;;;;-146.27;53.22;80335.72;5034318;28;20017;-70
2023/06/18 07:22:29;;;;;;;13.35;8.50;;;;;;;-146.27;51.67;80295.56;5026523;28;20021;-70
2023/06/18 07:24:56;;;;;;;15.32;7.88;;;;;;;-146.27;51.27;80345.78;5022299;28;20056;-71
2023/06/18 07:27:23;;;;;;;11.32;8.10;;;;;;;-146.27;50.12;80303.59;5028048;28;20555;-72
2023/06/18 07:29:48;;;;;;;10.60;8.02;;;;;;;-146.27;49.61;80291.56;5030213;28;20047;-70
2023/06/18 07:32:14;;;;;;;13.98;7.68;;;;;;;-146.27;48.33;80271.47;5024513;28;20056;-70
2023/06/18 07:34:39;;;;;;;8.52;7.18;;;;;;;-146.27;48.97;80259.44;5029104;28;20025;-70
2023/06/18 07:37:05;;;;;;;10.90;7.57;;;;;;;-146.27;48.56;80243.38;5029606;28;20033;-71
2023/06/18 07:39:30;;;;;;;11.90;6.97;;;;;;;-146.27;49.37;80191.16;5029673;28;20544;-70
2023/06/18 07:41:56;;;;;;;12.05;7.57;;;;;;;-146.27;49.24;80185.16;5028659;28;20041;-70
2023/06/18 07:44:21;;;;;;;14.60;7.25;;;;;;;-146.27;48.97;80118.91;5028671;28;20018;-71
2023/06/18 07:46:47;;;;;;;12.50;6.88;;;;;;;-146.27;49.04;80167.09;5027114;28;20104;-70
2023/06/18 07:49:12;;;;;;;10.80;7.43;;;;;;;-146.27;48.29;80122.91;5023044;28;20391;-70
2023/06/18 07:51:38;;;;;;;9.48;7.22;;;;;;;-146.27;47.52;80098.81;5027719;28;20040;-70
2023/06/18 07:54:03;;;;;;;9.82;6.93;;;;;;;-146.27;47.09;80068.69;5022727;28;20116;-71
2023/06/18 07:56:28;;;;;;;12.80;7.65;;;;;;;-146.27;46.56;80100.81;5024601;28;20088;-72
2023/06/18 07:58:54;;;;;;;9.70;8.00;;;;;;;-146.27;46.67;80122.91;5024373;28;20112;-69
2023/06/18 08:01:19;;;;;;;8.27;6.90;;;;;;;-146.27;46.68;80100.81;5023170;28;20072;-71
2023/06/18 08:03:45;;;;;;;9.50;7.20;;;;;;;-146.27;46.81;80138.97;5024084;28;20366;-69
2023/06/18 08:06:10;;;;;;;10.93;6.90;;;;;;;-146.27;47.10;80118.91;5024620;28;20055;-69
2023/06/18 08:08:35;;;;;;;12.52;7.00;;;;;;;-146.27;46.15;80132.94;5027240;28;20105;-69
2023/06/18 08:11:01;;;;;;;15.27;7.88;;;;;;;-146.27;45.67;80147.00;5024268;28;20497;-70
2023/06/18 08:13:26;;;;;;;9.88;8.27;;;;;;;-146.27;45.36;80138.97;5024730;28;20021;-70
2023/06/18 08:15:52;;;;;;;13.45;7.53;;;;;;;-146.27;45.90;80169.09;5021557;28;20022;-69
2023/06/18 08:18:17;;;;;;;12.77;7.90;;;;;;;-146.27;47.10;80090.78;5027070;28;20025;-69
2023/06/18 08:20:42;;;;;;;10.45;7.40;;;;;;;-146.27;46.67;80134.97;5024034;28;20029;-69
2023/06/18 08:23:08;;;;;;;8.52;7.20;;;;;;;-146.27;46.73;80094.81;5031761;28;20040;-69
2023/06/18 08:25:33;;;;;;;8.45;6.95;;;;;;;-146.27;47.38;80066.69;5035456;28;20034;-69
2023/06/18 08:27:58;;;;;;;12.57;7.72;;;;;;;-146.27;47.57;80080.75;5031267;28;20038;-69
2023/06/18 08:30:24;;;;;;;12.30;7.40;;;;;;;-146.27;47.37;80048.63;5014236;28;20013;-70
2023/06/18 08:32:50;;;;;;;11.93;8.18;;;;;;;-146.27;48.05;80044.63;5030850;28;20508;-69
2023/06/18 08:35:16;;;;;;;11.70;7.32;;;;;;;-146.27;46.64;79998.44;5027135;28;20029;-69
2023/06/18 08:37:42;;;;;;;15.95;7.32;;;;;;;-146.27;46.36;79958.28;5024262;28;20357;-69
2023/06/18 08:40:12;;;;;;;14.18;8.18;;;;;;;-146.27;45.99;79962.31;5027972;28;20037;-70
2023/06/18 08:42:37;;;;;;;15.82;8.48;;;;;;;-146.27;45.38;79930.19;5026421;28;20145;-69
2023/06/18 08:45:05;;;;;;;10.25;7.40;;;;;;;-146.27;47.10;79906.09;5029588;28;20052;-69
2023/06/18 08:47:32;;;;;;;12.30;8.13;;;;;;;-146.27;46.95;79902.06;5029283;28;20041;-70
2023/06/18 08:49:59;;;;;;;11.65;7.95;;;;;;;-146.27;45.20;79863.94;5027680;28;20362;-70
2023/06/18 08:52:27;;;;;;;17.23;8.60;;;;;;;-146.27;45.59;79837.84;5024675;28;20026;-70
2023/06/18 08:54:56;;;;;;;15.43;8.35;;;;;;;-146.27;44.63;79813.75;5026262;28;20076;-69
2023/06/18 08:57:31;;;;;;;8.70;7.25;;;;;;;-146.27;45.66;79833.81;5023921;28;20043;-69
2023/06/18 08:59:59;;;;;;;11.63;7.95;;;;;;;-146.27;44.83;79805.72;5021857;28;20025;-69
2023/06/18 09:02:26;;;;;;;9.63;7.40;;;;;;;-146.27;45.02;79765.56;5026573;28;20029;-69
2023/06/18 09:04:54;;;;;;;12.18;8.57;;;;;;;-146.27;45.16;79841.84;5026011;28;20109;-70
2023/06/18 09:07:20;;;;;;;10.75;8.07;;;;;;;-146.27;44.79;79781.63;5029334;28;20026;-69
2023/06/18 09:09:52;;;;;;;10.20;6.63;;;;;;;-146.27;46.13;79753.53;5033151;28;20046;-69
2023/06/18 09:12:18;;;;;;;11.13;7.05;;;;;;;-146.27;47.14;79693.28;5028588;28;20033;-71
2023/06/18 09:14:46;;;;;;;16.33;8.63;;;;;;;-146.27;47.06;79761.53;5021808;28;20059;-70
2023/06/18 09:17:15;;;;;;;14.80;8.07;;;;;;;-146.27;48.65;79721.41;5037836;28;20029;-71
2023/06/18 09:19:44;;;;;;;19.38;8.50;;;;;;;-146.27;46.61;79713.38;5031407;28;20031;-70
2023/06/18 09:22:22;;;;;;;17.02;9.07;;;;;;;-146.27;46.86;79789.66;5042912;28;20360;-70
2023/06/18 09:24:58;;;;;;;22.40;8.05;;;;;;;-146.27;48.28;79725.41;5043486;28;20051;-71
2023/06/18 09:27:32;;;;;;;13.45;7.65;;;;;;;-146.27;48.22;79687.28;5026505;28;20043;-70
2023/06/18 09:29:58;;;;;;;11.73;8.82;;;;;;;-146.27;47.25;79635.06;5040047;28;20393;-70
2023/06/18 09:32:23;;;;;;;11.80;7.97;;;;;;;-146.27;46.80;79641.09;5037714;28;20036;-71
2023/06/18 09:34:49;;;;;;;12.40;8.68;;;;;;;-146.27;46.14;79629.06;5032165;28;20509;-70
2023/06/18 09:37:16;;;;;;;13.38;8.30;;;;;;;-146.27;45.59;79617.00;5031457;28;20029;-70
2023/06/18 09:39:42;;;;;;;9.70;7.40;;;;;;;-146.27;47.24;79560.81;5030194;28;20056;-71
2023/06/18 09:42:11;;;;;;;13.40;8.60;;;;;;;-146.27;44.74;79544.75;5047285;28;20075;-70
2023/06/18 09:44:37;;;;;;;11.05;8.32;;;;;;;-146.27;45.38;79498.56;5029991;28;20055;-71
2023/06/18 09:47:10;;;;;;;11.60;8.68;;;;;;;-146.27;44.29;79518.66;5041808;28;20025;-71
2023/06/18 09:49:36;;;;;;;12.82;7.30;;;;;;;-146.27;45.02;79460.44;5027814;28;20453;-71
2023/06/18 09:52:04;;;;;;;14.50;8.27;;;;;;;-146.27;44.12;79430.31;5035435;28;20051;-71
2023/06/18 09:54:41;;;;;;;12.15;8.25;;;;;;;-146.27;44.86;79470.47;5035862;28;20025;-72
2023/06/18 09:57:09;;;;;;;10.77;8.40;;;;;;;-146.27;46.01;79462.44;5050321;28;20079;-71
2023/06/18 09:59:35;;;;;;;10.93;7.93;;;;;;;-146.27;46.56;79472.47;5025684;28;20029;-72
2023/06/18 10:02:00;;;;;;;12.25;8.27;;;;;;;-146.27;44.48;79500.59;5037953;28;20453;-73
2023/06/18 10:04:26;;;;;;;12.68;7.63;;;;;;;-146.27;44.90;79460.44;5033265;28;20025;-71
2023/06/18 10:07:02;;;;;;;11.93;7.88;;;;;;;-146.27;46.03;79492.56;5041777;28;20440;-72
2023/06/18 10:09:39;;;;;;;10.85;8.65;;;;;;;-146.27;45.83;79504.59;5031150;28;20379;-71
2023/06/18 10:12:06;;;;;;;9.98;8.93;;;;;;;-146.27;46.33;79536.72;5035520;28;20025;-71
2023/06/18 10:14:32;;;;;;;15.05;9.13;;;;;;;-146.27;46.97;79580.88;5042859;28;20208;-71
2023/06/18 10:17:40;;;;;;;14.07;8.88;;;;;;;-146.27;47.13;79524.66;5041832;28;20032;-71
2023/06/18 10:20:07;;;;;;;8.90;7.03;;;;;;;-146.27;46.81;79520.66;5026259;28;20484;-71
2023/06/18 10:23:12;;;;;;;13.77;9.05;;;;;;;-146.27;46.61;79562.81;5025811;28;20025;-71
2023/06/18 10:25:38;;;;;;;12.10;8.88;;;;;;;-146.27;46.69;79578.88;5023035;28;20655;-71
2023/06/18 10:28:04;;;;;;;15.93;9.18;;;;;;;-146.27;46.86;79596.94;5026400;28;20061;-71
2023/06/18 10:30:29;;;;;;;12.02;8.30;;;;;;;-146.27;46.95;79584.88;5027180;28;20374;-72
2023/06/18 10:32:55;;;;;;;14.00;7.82;;;;;;;-146.27;46.90;79600.94;5025644;28;20022;-72
2023/06/18 10:35:21;;;;;;;11.95;8.30;;;;;;;-146.27;47.34;79613.00;5031688;28;20032;-71
2023/06/18 10:37:47;;;;;;;11.35;7.55;;;;;;;-146.27;47.68;79645.13;5029654;28;20101;-72
2023/06/18 10:40:12;;;;;;;11.45;7.03;;;;;;;-146.27;47.58;79625.03;5025908;28;20037;-71
2023/06/18 10:42:41;;;;;;;9.90;6.65;;;;;;;-146.27;47.15;79629.06;5027193;28;20025;-70
2023/06/18 10:45:17;;;;;;;8.23;6.10;;;;;;;-146.27;47.04;79639.09;5025998;28;20029;-71
2023/06/18 10:47:43;;;;;;;8.80;7.03;;;;;;;-146.27;46.63;79582.88;5020701;28;20025;-69
2023/06/18 10:50:17;;;;;;;7.93;6.20;;;;;;;-146.27;46.87;79596.94;5021384;28;20025;-71
2023/06/18 10:52:49;;;;;;;7.03;6.15;;;;;;;-146.27;47.39;79578.88;5030052;28;20033;-70
2023/06/18 10:55:20;;;;;;;7.47;5.83;;;;;;;-146.27;46.81;79532.69;5029014;28;20017;-71
2023/06/18 10:57:47;;;;;;;7.65;6.78;;;;;;;-146.27;46.86;79516.63;5023152;28;20068;-70
2023/06/18 11:00:15;;;;;;;12.48;6.78;;;;;;;-146.27;46.78;79536.72;5024912;28;20090;-70
2023/06/18 11:02:41;;;;;;;8.38;6.50;;;;;;;-146.27;47.12;79440.34;5026330;28;20053;-70
2023/06/18 11:05:07;;;;;;;19.15;6.57;;;;;;;-146.27;46.71;79382.16;5029871;28;20399;-71
2023/06/18 11:07:32;;;;;;;7.55;5.20;;;;;;;-146.27;47.06;79335.97;5029176;28;20025;-71
2023/06/18 11:10:00;;;;;;;8.82;5.47;;;;;;;-146.27;46.75;79344.00;5034325;28;20049;-71